createdAt,value
2023-01-06T00:01:21.244Z,8.67
2023-01-06T00:06:27.514Z,8.61
2023-01-06T00:11:29.827Z,8.54
2023-01-06T00:16:31.420Z,8.59
2023-01-06T00:21:33.170Z,8.57
2023-01-06T00:26:34.845Z,8.60
2023-01-06T00:31:37.915Z,8.69
2023-01-06T00:36:39.522Z,8.71
2023-01-06T00:42:00.229Z,8.69
2023-01-06T00:47:03.169Z,8.68
2023-01-06T00:52:05.133Z,8.58
2023-01-06T00:57:07.913Z,8.59
2023-01-06T01:02:09.711Z,8.52
2023-01-06T01:07:11.310Z,8.55
2023-01-06T01:12:14.706Z,8.60
2023-01-06T01:17:27.832Z,8.64
2023-01-06T01:22:31.356Z,8.69
2023-01-06T01:27:32.997Z,8.60
2023-01-06T01:32:34.612Z,8.64
2023-01-06T01:37:36.234Z,8.59
2023-01-06T01:42:37.904Z,8.56
2023-01-06T01:47:52.054Z,8.48
2023-01-06T01:53:01.177Z,8.39
2023-01-06T01:58:06.435Z,8.29
2023-01-06T02:03:09.174Z,8.23
2023-01-06T02:08:38.386Z,8.05
2023-01-06T02:13:42.434Z,7.90
2023-01-06T02:19:02.366Z,7.73
2023-01-06T02:24:31.851Z,7.55
2023-01-06T02:29:38.846Z,7.45
2023-01-06T02:35:02.983Z,7.15
2023-01-06T02:40:33.844Z,6.96
2023-01-06T02:45:53.306Z,6.99
2023-01-06T02:51:30.036Z,6.94
2023-01-06T02:56:36.906Z,6.85
2023-01-06T03:01:44.081Z,6.77
2023-01-06T03:06:50.702Z,6.74
2023-01-06T03:11:52.847Z,6.65
2023-01-06T03:16:55.304Z,6.52
2023-01-06T03:21:59.274Z,6.44
2023-01-06T03:27:02.981Z,6.41
2023-01-06T03:32:12.065Z,6.37
2023-01-06T03:37:26.768Z,6.32
2023-01-06T03:42:54.558Z,6.37
2023-01-06T03:48:08.236Z,6.31
2023-01-06T03:53:22.676Z,6.26
2023-01-06T03:58:29.521Z,6.24
2023-01-06T04:03:31.952Z,6.21
2023-01-06T04:08:34.091Z,6.14
2023-01-06T04:13:37.293Z,6.01
2023-01-06T04:18:39.056Z,5.88
2023-01-06T04:23:41.310Z,5.85
2023-01-06T04:28:43.082Z,5.80
2023-01-06T04:33:45.174Z,5.71
2023-01-06T04:38:47.695Z,5.65
2023-01-06T04:43:49.826Z,5.59
2023-01-06T04:48:51.492Z,5.54
2023-01-06T04:53:53.280Z,5.53
2023-01-06T04:58:58.300Z,5.48
2023-01-06T05:04:00.304Z,5.40
2023-01-06T05:09:02.464Z,5.31
2023-01-06T05:14:04.214Z,5.28
2023-01-06T05:19:05.867Z,5.14
2023-01-06T05:24:09.998Z,4.96
2023-01-06T05:29:17.711Z,4.95
2023-01-06T05:34:19.350Z,4.89
2023-01-06T05:39:20.961Z,4.85
2023-01-06T05:44:22.548Z,4.87
2023-01-06T05:49:24.177Z,4.89
2023-01-06T05:54:26.066Z,4.92
2023-01-06T05:59:27.737Z,4.91
2023-01-06T06:04:29.395Z,4.95
2023-01-06T06:09:31.045Z,5.08
2023-01-06T06:14:32.851Z,5.16
2023-01-06T06:19:34.490Z,5.17
2023-01-06T06:24:36.116Z,5.24
2023-01-06T06:29:37.927Z,5.27
2023-01-06T06:34:39.595Z,5.29
2023-01-06T06:39:41.239Z,5.36
2023-01-06T06:44:43.116Z,5.37
2023-01-06T06:49:44.857Z,5.39
2023-01-06T06:54:46.459Z,5.41
2023-01-06T06:59:48.508Z,5.44
2023-01-06T07:04:50.459Z,5.47
2023-01-06T07:09:52.060Z,5.53
2023-01-06T07:14:53.689Z,5.66
2023-01-06T07:19:55.488Z,5.73
2023-01-06T07:24:57.075Z,5.83
2023-01-06T07:29:58.677Z,5.99
2023-01-06T07:35:00.325Z,6.10
2023-01-06T07:40:02.007Z,6.21
2023-01-06T07:45:10.126Z,6.35
2023-01-06T07:50:11.842Z,6.45
2023-01-06T07:55:13.572Z,6.56
2023-01-06T08:00:15.565Z,6.74
2023-01-06T08:05:17.178Z,6.90
2023-01-06T08:10:18.791Z,7.10
2023-01-06T08:15:20.650Z,7.26
2023-01-06T08:20:22.958Z,7.36
2023-01-06T08:25:24.618Z,7.48
2023-01-06T08:30:26.703Z,7.58
2023-01-06T08:35:28.922Z,7.69
2023-01-06T08:40:30.701Z,7.80
2023-01-06T08:45:32.348Z,7.83
2023-01-06T08:50:33.995Z,7.91
2023-01-06T08:55:38.989Z,8.02
2023-01-06T09:00:43.271Z,8.09
2023-01-06T09:05:52.461Z,8.15
2023-01-06T09:10:53.972Z,8.25
2023-01-06T09:15:55.588Z,8.41
2023-01-06T09:20:57.368Z,8.52
2023-01-06T09:25:59.472Z,8.63
2023-01-06T09:31:01.504Z,8.73
2023-01-06T09:36:03.626Z,8.80
2023-01-06T09:41:21.055Z,8.88
2023-01-06T09:46:28.926Z,8.96
2023-01-06T09:51:32.707Z,8.97
2023-01-06T09:56:34.374Z,9.01
2023-01-06T10:01:45.260Z,9.05
2023-01-06T10:07:21.091Z,9.10
2023-01-06T10:12:25.297Z,9.30
2023-01-06T10:17:48.754Z,9.43
2023-01-06T10:22:53.421Z,9.58
2023-01-06T10:28:33.998Z,9.76
2023-01-06T10:33:41.367Z,9.94
2023-01-06T10:38:46.985Z,10.09
2023-01-06T10:43:48.687Z,10.23
2023-01-06T10:48:52.121Z,10.39
2023-01-06T10:53:57.842Z,10.63
2023-01-06T10:59:10.675Z,10.80
2023-01-06T11:04:13.524Z,11.04
2023-01-06T11:09:33.937Z,11.21
2023-01-06T11:14:36.393Z,11.35
2023-01-06T11:19:40.404Z,11.46
2023-01-06T11:24:53.615Z,11.60
2023-01-06T11:29:55.520Z,11.77
2023-01-06T11:35:05.595Z,11.89
2023-01-06T11:40:37.000Z,12.05
2023-01-06T11:45:42.213Z,12.11
2023-01-06T11:50:58.378Z,12.13
2023-01-06T11:56:02.592Z,12.17
2023-01-06T12:01:29.179Z,12.13
2023-01-06T12:06:37.100Z,12.17
2023-01-06T12:11:53.413Z,12.19
2023-01-06T12:17:11.222Z,12.21
2023-01-06T12:22:45.320Z,12.16
2023-01-06T12:28:11.812Z,12.19
2023-01-06T12:33:24.309Z,12.25
2023-01-06T12:38:25.863Z,12.31
2023-01-06T12:43:31.379Z,12.33
2023-01-06T12:48:45.563Z,12.43
2023-01-06T12:53:58.008Z,12.51
2023-01-06T12:59:08.707Z,12.54
2023-01-06T13:04:28.868Z,12.47
2023-01-06T13:09:45.348Z,12.35
2023-01-06T13:15:13.069Z,12.31
2023-01-06T13:20:23.902Z,12.36
2023-01-06T13:25:44.911Z,12.33
2023-01-06T13:31:09.305Z,12.34
2023-01-06T13:37:08.165Z,12.35
2023-01-06T13:42:16.755Z,12.33
2023-01-06T13:47:23.130Z,12.29
2023-01-06T13:52:30.651Z,12.23
2023-01-06T13:57:35.733Z,12.23
2023-01-06T14:02:40.503Z,12.26
2023-01-06T14:07:50.337Z,12.26
2023-01-06T14:12:52.597Z,12.32
2023-01-06T14:17:54.330Z,12.27
2023-01-06T14:23:05.894Z,12.22
2023-01-06T14:28:23.840Z,12.12
2023-01-06T14:33:39.573Z,11.98
2023-01-06T14:38:46.520Z,11.92
2023-01-06T14:43:58.278Z,11.71
2023-01-06T14:49:02.972Z,11.61
2023-01-06T14:54:35.836Z,11.49
2023-01-06T14:59:37.485Z,11.39
2023-01-06T15:04:39.799Z,11.31
2023-01-06T15:09:41.726Z,11.18
2023-01-06T15:14:43.545Z,11.12
2023-01-06T15:19:47.656Z,11.05
2023-01-06T15:24:49.825Z,10.93
2023-01-06T15:29:56.973Z,10.81
2023-01-06T15:34:59.595Z,10.72
2023-01-06T15:40:02.021Z,10.59
2023-01-06T15:45:07.000Z,10.51
2023-01-06T15:50:18.628Z,10.36
2023-01-06T15:55:25.754Z,10.24
2023-01-06T16:00:32.222Z,10.14
2023-01-06T16:05:41.182Z,10.01
2023-01-06T16:10:44.886Z,9.88
2023-01-06T16:15:49.491Z,9.77
2023-01-06T16:20:51.196Z,9.62
2023-01-06T16:26:03.262Z,9.46
2023-01-06T16:31:09.296Z,9.39
2023-01-06T16:36:17.958Z,9.32
2023-01-06T16:41:19.966Z,9.27
2023-01-06T16:46:27.829Z,9.22
2023-01-06T16:51:29.531Z,9.20
2023-01-06T16:56:31.293Z,9.19
2023-01-06T17:01:35.487Z,9.21
2023-01-06T17:06:38.780Z,9.23
2023-01-06T17:11:40.434Z,9.14
2023-01-06T17:16:43.008Z,9.18
2023-01-06T17:21:44.706Z,9.13
2023-01-06T17:26:59.960Z,9.12
2023-01-06T17:32:03.326Z,9.16
2023-01-06T17:37:14.947Z,9.15
2023-01-06T17:42:16.693Z,9.17
2023-01-06T17:47:18.239Z,9.14
2023-01-06T17:52:23.024Z,9.14
2023-01-06T17:57:26.199Z,9.09
2023-01-06T18:02:44.407Z,9.00
2023-01-06T18:07:46.121Z,8.90
2023-01-06T18:12:48.340Z,8.94
2023-01-06T18:17:49.947Z,8.93
2023-01-06T18:22:51.623Z,8.92
2023-01-06T18:27:53.364Z,8.92
2023-01-06T18:32:55.114Z,8.94
2023-01-06T18:38:02.896Z,8.98
2023-01-06T18:43:23.120Z,8.98
2023-01-06T18:48:27.606Z,9.00
2023-01-06T18:53:40.152Z,8.97
2023-01-06T18:58:46.049Z,8.99
2023-01-06T19:04:37.748Z,9.05
2023-01-06T19:09:44.949Z,9.18
2023-01-06T19:14:51.017Z,9.25
2023-01-06T19:19:53.481Z,9.25
2023-01-06T19:25:15.318Z,9.23
2023-01-06T19:30:17.099Z,9.25
2023-01-06T19:35:25.827Z,9.27
2023-01-06T19:40:30.678Z,9.25
2023-01-06T19:45:34.962Z,9.17
2023-01-06T19:50:36.688Z,9.14
2023-01-06T19:55:38.912Z,9.04
2023-01-06T20:00:49.120Z,8.98
2023-01-06T20:05:50.826Z,8.90
2023-01-06T20:10:52.769Z,8.87
2023-01-06T20:15:54.606Z,8.85
2023-01-06T20:20:56.408Z,8.82
2023-01-06T20:25:58.468Z,8.76
2023-01-06T20:31:00.104Z,8.69
2023-01-06T20:36:01.759Z,8.60
2023-01-06T20:41:03.565Z,8.50
2023-01-06T20:46:05.704Z,8.38
2023-01-06T20:51:07.703Z,8.25
2023-01-06T20:56:09.305Z,8.14
2023-01-06T21:01:10.988Z,8.03
2023-01-06T21:06:12.757Z,7.98
2023-01-06T21:11:14.356Z,7.96
2023-01-06T21:16:15.978Z,7.92
2023-01-06T21:21:17.818Z,7.90
2023-01-06T21:26:19.426Z,7.88
2023-01-06T21:31:21.685Z,7.84
2023-01-06T21:36:23.344Z,7.80
2023-01-06T21:41:43.355Z,7.72
2023-01-06T21:46:45.029Z,7.61
2023-01-06T21:51:48.695Z,7.59
2023-01-06T21:56:50.594Z,7.68
2023-01-06T22:01:52.545Z,7.77
2023-01-06T22:06:56.720Z,7.64
2023-01-06T22:12:00.253Z,7.58
2023-01-06T22:17:02.428Z,7.51
2023-01-06T22:22:04.886Z,7.48
2023-01-06T22:27:06.697Z,7.41
2023-01-06T22:32:08.324Z,7.29
2023-01-06T22:37:09.964Z,7.26
2023-01-06T22:42:11.980Z,7.17
2023-01-06T22:47:13.633Z,7.14
2023-01-06T22:52:16.322Z,7.11
2023-01-06T22:57:18.200Z,7.06
2023-01-06T23:02:19.961Z,6.99
2023-01-06T23:07:22.081Z,6.85
2023-01-06T23:12:23.765Z,6.78
2023-01-06T23:17:25.408Z,6.71
2023-01-06T23:22:27.149Z,6.63
2023-01-06T23:27:31.157Z,6.59
2023-01-06T23:32:33.102Z,6.59
2023-01-06T23:37:34.985Z,6.62
2023-01-06T23:42:40.854Z,6.60
2023-01-06T23:47:49.367Z,6.55
2023-01-06T23:52:51.673Z,6.54
2023-01-06T23:57:54.172Z,6.53
